createdAt,value
2022-10-18T00:02:20.180Z,85.30
2022-10-18T00:04:47.234Z,85.50
2022-10-18T00:07:14.065Z,85.90
2022-10-18T00:09:40.984Z,86.60
2022-10-18T00:12:08.308Z,86.90
2022-10-18T00:14:35.012Z,86.30
2022-10-18T00:17:01.821Z,86.80
2022-10-18T00:19:29.418Z,86.90
2022-10-18T00:21:56.568Z,87.90
2022-10-18T00:24:23.268Z,90.10
2022-10-18T00:26:49.942Z,90.10
2022-10-18T00:29:18.380Z,90.20
2022-10-18T00:31:45.245Z,90.30
2022-10-18T00:34:14.844Z,90.20
2022-10-18T00:36:42.796Z,90.30
2022-10-18T00:39:15.764Z,90.10
2022-10-18T00:41:42.465Z,89.60
2022-10-18T00:44:11.953Z,89.50
2022-10-18T00:46:43.741Z,90.30
2022-10-18T00:49:20.693Z,90.30
2022-10-18T00:51:58.870Z,89.80
2022-10-18T00:54:28.200Z,89.00
2022-10-18T00:56:55.337Z,88.60
2022-10-18T00:59:22.356Z,89.40
2022-10-18T01:01:49.245Z,89.70
2022-10-18T01:04:17.937Z,89.00
2022-10-18T01:07:13.974Z,89.30
2022-10-18T01:09:52.434Z,90.20
2022-10-18T01:12:33.757Z,90.30
2022-10-18T01:15:13.322Z,90.00
2022-10-18T01:17:48.996Z,89.70
2022-10-18T01:20:53.671Z,89.70
2022-10-18T01:23:45.428Z,89.40
2022-10-18T01:26:47.815Z,88.20
2022-10-18T01:29:44.782Z,88.10
2022-10-18T01:32:19.243Z,88.30
2022-10-18T01:34:48.849Z,88.70
2022-10-18T01:37:19.561Z,87.80
2022-10-18T01:39:47.977Z,87.30
2022-10-18T01:42:19.554Z,86.60
2022-10-18T01:44:49.576Z,86.80
2022-10-18T01:47:17.837Z,86.60
2022-10-18T01:49:44.551Z,86.60
2022-10-18T01:52:16.034Z,86.40
2022-10-18T01:54:49.061Z,85.70
2022-10-18T01:57:19.724Z,85.70
2022-10-18T01:59:49.210Z,85.40
2022-10-18T02:02:31.119Z,85.60
2022-10-18T02:05:09.964Z,85.00
2022-10-18T02:08:19.025Z,84.90
2022-10-18T02:10:54.423Z,84.50
2022-10-18T02:13:23.514Z,85.20
2022-10-18T02:15:55.185Z,84.10
2022-10-18T02:18:29.247Z,84.80
2022-10-18T02:20:58.039Z,85.30
2022-10-18T02:23:26.415Z,85.70
2022-10-18T02:25:54.053Z,86.60
2022-10-18T02:28:21.333Z,86.60
2022-10-18T02:31:02.358Z,86.10
2022-10-18T02:33:45.336Z,86.30
2022-10-18T02:36:34.691Z,85.80
2022-10-18T02:39:05.891Z,85.90
2022-10-18T02:41:33.047Z,85.60
2022-10-18T02:43:59.797Z,86.00
2022-10-18T02:48:54.267Z,86.40
2022-10-18T02:51:20.985Z,86.90
2022-10-18T02:53:47.741Z,87.20
2022-10-18T02:56:14.517Z,86.60
2022-10-18T02:58:41.244Z,86.30
2022-10-18T03:01:07.988Z,85.50
2022-10-18T03:03:34.776Z,85.00
2022-10-18T03:06:01.532Z,85.00
2022-10-18T03:08:28.320Z,84.90
2022-10-18T03:10:55.051Z,85.40
2022-10-18T03:13:22.122Z,85.80
2022-10-18T03:15:49.012Z,86.50
2022-10-18T03:18:16.353Z,87.30
2022-10-18T03:20:43.114Z,87.20
2022-10-18T03:23:09.873Z,87.40
2022-10-18T03:25:36.676Z,86.80
2022-10-18T03:28:03.493Z,86.20
2022-10-18T03:30:30.373Z,86.30
2022-10-18T03:32:57.156Z,86.30
2022-10-18T03:35:23.828Z,85.90
2022-10-18T03:37:51.005Z,85.70
2022-10-18T03:40:17.956Z,86.00
2022-10-18T03:42:44.691Z,86.60
2022-10-18T03:45:11.507Z,87.10
2022-10-18T03:47:38.459Z,87.60
2022-10-18T03:50:05.654Z,87.30
2022-10-18T03:52:32.515Z,87.40
2022-10-18T03:54:59.535Z,87.40
2022-10-18T03:57:26.239Z,86.60
2022-10-18T03:59:52.976Z,85.30
2022-10-18T04:02:19.717Z,85.80
2022-10-18T04:04:46.463Z,85.30
2022-10-18T04:07:13.233Z,85.00
2022-10-18T04:09:39.951Z,84.80
2022-10-18T04:12:06.757Z,84.80
2022-10-18T04:14:33.536Z,85.00
2022-10-18T04:17:00.337Z,84.90
2022-10-18T04:19:27.801Z,84.60
2022-10-18T04:21:54.569Z,84.60
2022-10-18T04:24:21.408Z,84.20
2022-10-18T04:26:48.080Z,84.00
2022-10-18T04:29:14.890Z,83.60
2022-10-18T04:31:41.607Z,83.40
2022-10-18T04:34:09.185Z,82.40
2022-10-18T04:36:35.894Z,81.80
2022-10-18T04:39:02.683Z,83.10
2022-10-18T04:41:29.400Z,85.00
2022-10-18T04:43:56.179Z,84.70
2022-10-18T04:46:22.876Z,84.00
2022-10-18T04:48:49.628Z,83.70
2022-10-18T04:51:16.374Z,83.90
2022-10-18T04:53:43.187Z,84.00
2022-10-18T04:56:09.940Z,84.40
2022-10-18T04:58:36.655Z,84.80
2022-10-18T05:01:07.622Z,85.30
2022-10-18T05:03:34.873Z,86.20
2022-10-18T05:06:02.965Z,88.10
2022-10-18T05:08:34.251Z,87.60
2022-10-18T05:11:01.844Z,87.90
2022-10-18T05:13:29.057Z,87.90
2022-10-18T05:15:56.033Z,87.60
2022-10-18T05:18:22.776Z,87.80
2022-10-18T05:20:49.465Z,88.50
2022-10-18T05:23:16.224Z,88.20
2022-10-18T05:25:43.639Z,88.90
2022-10-18T05:28:21.072Z,89.40
2022-10-18T05:31:02.098Z,88.90
2022-10-18T05:33:29.408Z,87.50
2022-10-18T05:35:56.220Z,86.80
2022-10-18T05:38:23.086Z,87.00
2022-10-18T05:40:49.947Z,86.90
2022-10-18T05:43:17.841Z,86.50
2022-10-18T05:45:48.979Z,87.20
2022-10-18T05:48:15.906Z,87.00
2022-10-18T05:50:42.996Z,86.60
2022-10-18T05:53:12.273Z,86.00
2022-10-18T05:55:45.232Z,86.30
2022-10-18T05:58:12.014Z,85.70
2022-10-18T06:00:38.724Z,85.50
2022-10-18T06:03:05.510Z,84.80
2022-10-18T06:05:32.389Z,85.10
2022-10-18T06:07:59.148Z,84.40
2022-10-18T06:10:25.911Z,84.20
2022-10-18T06:12:52.909Z,84.50
2022-10-18T06:15:19.634Z,84.60
2022-10-18T06:17:46.308Z,84.60
2022-10-18T06:20:13.028Z,84.40
2022-10-18T06:22:39.729Z,83.80
2022-10-18T06:25:06.947Z,83.60
2022-10-18T06:27:35.008Z,84.10
2022-10-18T06:30:01.955Z,84.00
2022-10-18T06:32:28.674Z,84.20
2022-10-18T06:34:55.466Z,82.70
2022-10-18T06:37:22.197Z,82.90
2022-10-18T06:39:48.938Z,83.30
2022-10-18T06:42:17.968Z,83.30
2022-10-18T06:44:47.890Z,82.80
2022-10-18T06:47:14.705Z,81.20
2022-10-18T06:49:41.396Z,79.40
2022-10-18T06:52:08.123Z,80.10
2022-10-18T06:54:34.931Z,79.00
2022-10-18T06:57:02.720Z,78.80
2022-10-18T06:59:31.321Z,78.50
2022-10-18T07:01:58.446Z,78.70
2022-10-18T07:04:28.883Z,77.80
2022-10-18T07:06:55.722Z,77.10
2022-10-18T07:09:22.503Z,74.30
2022-10-18T07:11:49.206Z,72.50
2022-10-18T07:14:16.542Z,70.10
2022-10-18T07:16:43.472Z,69.50
2022-10-18T07:19:10.293Z,68.70
2022-10-18T07:21:37.008Z,68.50
2022-10-18T07:24:03.858Z,68.40
2022-10-18T07:26:33.077Z,68.30
2022-10-18T07:29:09.010Z,68.20
2022-10-18T07:31:36.418Z,68.60
2022-10-18T07:34:07.278Z,67.10
2022-10-18T07:36:34.415Z,66.50
2022-10-18T07:39:01.172Z,66.80
2022-10-18T07:41:29.039Z,65.70
2022-10-18T07:43:55.778Z,65.50
2022-10-18T07:46:23.076Z,64.70
2022-10-18T07:48:50.570Z,64.30
2022-10-18T07:51:18.967Z,64.50
2022-10-18T07:53:45.881Z,64.80
2022-10-18T07:56:18.087Z,65.10
2022-10-18T07:58:46.160Z,65.90
2022-10-18T08:01:14.021Z,65.80
2022-10-18T08:03:41.940Z,65.20
2022-10-18T08:06:10.206Z,64.40
2022-10-18T08:08:38.340Z,63.70
2022-10-18T08:11:17.410Z,63.20
2022-10-18T08:13:44.403Z,63.10
2022-10-18T08:16:13.664Z,62.50
2022-10-18T08:18:40.485Z,62.70
2022-10-18T08:21:10.545Z,62.30
2022-10-18T08:23:37.948Z,63.30
2022-10-18T08:26:10.873Z,62.10
2022-10-18T08:28:37.755Z,62.20
2022-10-18T08:31:06.095Z,62.90
2022-10-18T08:33:34.835Z,63.40
2022-10-18T08:36:05.829Z,63.50
2022-10-18T08:38:34.147Z,62.40
2022-10-18T08:41:34.704Z,62.70
2022-10-18T08:44:22.122Z,63.10
2022-10-18T08:46:52.166Z,63.30
2022-10-18T08:49:34.180Z,63.50
2022-10-18T08:52:01.368Z,63.40
2022-10-18T08:54:54.204Z,63.40
2022-10-18T08:57:22.345Z,63.20
2022-10-18T08:59:49.142Z,63.30
2022-10-18T09:02:21.968Z,62.90
2022-10-18T09:05:00.210Z,62.80
2022-10-18T09:07:32.715Z,62.40
2022-10-18T09:10:22.648Z,61.30
2022-10-18T09:12:49.347Z,60.90
2022-10-18T09:15:43.527Z,60.60
2022-10-18T09:18:26.959Z,59.70
2022-10-18T09:21:05.373Z,58.90
2022-10-18T09:23:48.484Z,58.50
2022-10-18T09:26:15.200Z,58.00
2022-10-18T09:29:02.892Z,56.80
2022-10-18T09:31:55.837Z,56.20
2022-10-18T09:34:28.891Z,54.70
2022-10-18T09:36:56.639Z,53.80
2022-10-18T09:39:29.138Z,52.20
2022-10-18T09:42:05.611Z,51.60
2022-10-18T09:44:38.949Z,50.70
2022-10-18T09:47:21.432Z,49.50
2022-10-18T09:49:54.808Z,48.90
2022-10-18T09:52:39.419Z,46.80
2022-10-18T09:55:15.718Z,46.60
2022-10-18T09:57:51.548Z,45.10
2022-10-18T10:00:38.230Z,44.10
2022-10-18T10:03:12.536Z,43.10
2022-10-18T10:05:39.252Z,42.30
2022-10-18T10:08:06.253Z,41.90
2022-10-18T10:10:34.984Z,41.50
2022-10-18T10:13:24.568Z,40.90
2022-10-18T10:16:11.553Z,41.00
2022-10-18T10:18:40.065Z,40.40
2022-10-18T10:21:13.297Z,41.80
2022-10-18T10:23:47.070Z,41.20
2022-10-18T10:26:37.856Z,40.70
2022-10-18T10:29:43.630Z,40.50
2022-10-18T10:32:14.356Z,40.70
2022-10-18T10:34:44.643Z,40.80
2022-10-18T10:37:34.807Z,40.30
2022-10-18T10:40:19.807Z,39.90
2022-10-18T10:43:36.390Z,40.60
2022-10-18T10:46:11.412Z,39.90
2022-10-18T10:49:09.583Z,41.30
2022-10-18T10:51:41.180Z,41.10
2022-10-18T10:54:15.072Z,41.30
2022-10-18T10:57:04.984Z,41.40
2022-10-18T10:59:43.547Z,41.80
2022-10-18T11:02:19.046Z,42.20
2022-10-18T11:04:47.987Z,42.40
2022-10-18T11:07:40.783Z,43.30
2022-10-18T11:10:10.484Z,43.20
2022-10-18T11:12:45.258Z,43.20
2022-10-18T11:15:14.708Z,43.30
2022-10-18T11:18:09.039Z,43.20
2022-10-18T11:20:41.162Z,42.60
2022-10-18T11:23:13.614Z,43.50
2022-10-18T11:25:48.825Z,42.80
2022-10-18T11:28:42.696Z,42.30
2022-10-18T11:31:27.408Z,42.30
2022-10-18T11:34:28.020Z,42.40
2022-10-18T11:37:39.241Z,42.40
2022-10-18T11:40:41.496Z,42.40
2022-10-18T11:43:24.729Z,42.30
2022-10-18T11:46:14.956Z,42.70
2022-10-18T11:49:03.578Z,42.70
2022-10-18T11:52:16.203Z,43.80
2022-10-18T11:54:46.082Z,42.80
2022-10-18T11:57:18.555Z,42.90
2022-10-18T12:00:09.443Z,42.80
2022-10-18T12:02:56.809Z,42.10
2022-10-18T12:05:25.119Z,41.70
2022-10-18T12:08:15.261Z,41.50
2022-10-18T12:11:03.853Z,41.20
2022-10-18T12:13:51.516Z,40.80
2022-10-18T12:16:38.845Z,40.60
2022-10-18T12:19:22.078Z,39.50
2022-10-18T12:21:53.944Z,39.20
2022-10-18T12:24:25.389Z,39.40
2022-10-18T12:26:56.990Z,39.20
2022-10-18T12:29:46.674Z,39.20
2022-10-18T12:32:21.055Z,39.40
2022-10-18T12:34:54.714Z,39.60
2022-10-18T12:37:27.701Z,39.50
2022-10-18T12:40:11.470Z,39.50
2022-10-18T12:42:48.187Z,40.10
2022-10-18T12:45:34.859Z,39.70
2022-10-18T12:48:06.830Z,39.70
2022-10-18T12:50:37.169Z,39.30
2022-10-18T12:53:26.658Z,39.70
2022-10-18T12:55:54.367Z,40.10
2022-10-18T12:58:22.415Z,40.20
2022-10-18T13:00:49.199Z,40.20
2022-10-18T13:03:19.409Z,40.10
2022-10-18T13:05:54.985Z,40.70
2022-10-18T13:08:31.753Z,40.30
2022-10-18T13:11:08.208Z,40.00
2022-10-18T13:14:07.723Z,40.30
2022-10-18T13:17:31.784Z,40.50
2022-10-18T13:20:43.101Z,41.10
2022-10-18T13:23:28.324Z,41.30
2022-10-18T13:26:13.897Z,41.40
2022-10-18T13:29:16.456Z,41.50
2022-10-18T13:34:43.844Z,41.90
2022-10-18T13:37:10.531Z,42.30
2022-10-18T13:39:39.751Z,42.50
2022-10-18T13:42:15.535Z,42.80
2022-10-18T13:44:44.626Z,41.90
2022-10-18T13:47:32.602Z,42.00
2022-10-18T13:50:34.060Z,42.00
2022-10-18T13:53:07.611Z,42.00
2022-10-18T13:55:57.641Z,42.00
2022-10-18T13:58:41.094Z,42.00
2022-10-18T14:01:40.369Z,41.70
2022-10-18T14:04:37.456Z,41.90
2022-10-18T14:07:05.997Z,42.40
2022-10-18T14:09:44.741Z,42.70
2022-10-18T14:12:28.942Z,42.50
2022-10-18T14:15:03.358Z,43.20
2022-10-18T14:17:44.182Z,45.50
2022-10-18T14:20:34.588Z,48.50
2022-10-18T14:23:31.313Z,52.10
2022-10-18T14:26:20.902Z,58.50
2022-10-18T14:29:04.398Z,61.30
2022-10-18T14:31:31.538Z,62.30
2022-10-18T14:33:59.706Z,63.50
2022-10-18T14:36:30.751Z,63.40
2022-10-18T14:39:03.578Z,64.20
2022-10-18T14:41:35.477Z,64.60
2022-10-18T14:44:14.411Z,64.50
2022-10-18T14:46:48.222Z,64.30
2022-10-18T14:49:15.865Z,64.00
2022-10-18T14:51:45.555Z,64.20
2022-10-18T14:54:25.059Z,64.00
2022-10-18T14:56:54.887Z,64.60
2022-10-18T14:59:27.464Z,64.40
2022-10-18T15:01:58.965Z,64.30
2022-10-18T15:04:32.798Z,64.10
2022-10-18T15:07:06.055Z,63.90
2022-10-18T15:09:35.919Z,63.70
2022-10-18T15:12:05.578Z,63.60
2022-10-18T15:14:32.680Z,63.00
2022-10-18T15:17:08.167Z,62.60
2022-10-18T15:19:39.389Z,62.30
2022-10-18T15:25:17.405Z,62.00
2022-10-18T15:27:50.393Z,61.80
2022-10-18T15:30:19.548Z,61.70
2022-10-18T15:32:56.760Z,62.40
2022-10-18T15:35:29.941Z,63.40
2022-10-18T15:38:00.185Z,64.20
2022-10-18T15:40:33.581Z,65.40
2022-10-18T15:43:04.027Z,66.40
2022-10-18T15:45:34.624Z,66.00
2022-10-18T15:48:09.350Z,66.50
2022-10-18T15:50:42.756Z,66.50
2022-10-18T15:53:24.410Z,67.60
2022-10-18T15:55:55.256Z,69.00
2022-10-18T15:58:32.040Z,69.90
2022-10-18T16:01:01.008Z,70.10
2022-10-18T16:03:28.524Z,71.70
2022-10-18T16:06:03.081Z,71.70
2022-10-18T16:08:37.214Z,72.10
2022-10-18T16:11:03.943Z,71.60
2022-10-18T16:13:30.697Z,72.10
2022-10-18T16:15:59.494Z,72.40
2022-10-18T16:18:26.910Z,72.60
2022-10-18T16:20:53.661Z,72.90
2022-10-18T16:23:24.180Z,72.70
2022-10-18T16:25:51.605Z,73.00
2022-10-18T16:28:21.869Z,73.40
2022-10-18T16:30:56.513Z,73.20
2022-10-18T16:33:23.892Z,73.30
2022-10-18T16:35:51.200Z,72.90
2022-10-18T16:38:32.710Z,72.50
2022-10-18T16:41:04.032Z,73.00
2022-10-18T16:43:31.542Z,73.50
2022-10-18T16:45:58.302Z,73.80
2022-10-18T16:48:25.423Z,74.30
2022-10-18T16:50:54.959Z,75.70
2022-10-18T16:53:26.165Z,75.10
2022-10-18T16:56:02.120Z,69.90
2022-10-18T16:58:31.520Z,67.10
2022-10-18T17:01:01.031Z,65.60
2022-10-18T17:03:29.905Z,64.20
2022-10-18T17:05:56.855Z,64.20
2022-10-18T17:08:25.957Z,64.10
2022-10-18T17:10:54.945Z,63.70
2022-10-18T17:13:23.017Z,63.40
2022-10-18T17:15:50.549Z,63.10
2022-10-18T17:18:23.028Z,63.30
2022-10-18T17:20:50.439Z,63.00
2022-10-18T17:23:17.384Z,63.30
2022-10-18T17:25:57.737Z,63.70
2022-10-18T17:28:33.121Z,63.90
2022-10-18T17:30:59.911Z,63.60
2022-10-18T17:33:26.638Z,63.70
2022-10-18T17:35:53.379Z,63.70
2022-10-18T17:38:20.074Z,63.80
2022-10-18T17:40:46.808Z,64.30
2022-10-18T17:43:13.964Z,65.00
2022-10-18T17:46:11.545Z,65.20
2022-10-18T17:48:38.322Z,66.10
2022-10-18T17:51:10.402Z,66.80
2022-10-18T17:53:37.297Z,67.60
2022-10-18T17:56:05.490Z,68.20
2022-10-18T17:58:32.562Z,68.80
2022-10-18T18:01:11.789Z,69.50
2022-10-18T18:03:38.990Z,69.50
2022-10-18T18:06:36.188Z,69.40
2022-10-18T18:09:07.458Z,69.00
2022-10-18T18:11:35.883Z,69.30
2022-10-18T18:14:02.869Z,70.00
2022-10-18T18:16:30.306Z,69.50
2022-10-18T18:18:58.418Z,69.30
2022-10-18T18:21:26.516Z,68.90
2022-10-18T18:23:54.008Z,68.60
2022-10-18T18:26:22.853Z,68.10
2022-10-18T18:28:49.919Z,68.10
2022-10-18T18:31:23.575Z,68.10
2022-10-18T18:33:55.385Z,67.90
2022-10-18T18:36:23.176Z,67.60
2022-10-18T18:38:55.485Z,67.50
2022-10-18T18:41:26.284Z,67.10
2022-10-18T18:43:55.682Z,67.00
2022-10-18T18:46:23.231Z,67.70
2022-10-18T18:48:50.024Z,67.60
2022-10-18T18:51:19.510Z,67.20
2022-10-18T18:53:47.771Z,67.90
2022-10-18T18:56:17.961Z,67.90
2022-10-18T18:58:46.443Z,67.90
2022-10-18T19:01:18.571Z,68.10
2022-10-18T19:03:48.232Z,67.90
2022-10-18T19:06:18.224Z,67.80
2022-10-18T19:08:45.711Z,67.80
2022-10-18T19:11:21.205Z,67.90
2022-10-18T19:13:49.069Z,68.00
2022-10-18T19:16:53.424Z,68.30
2022-10-18T19:19:24.270Z,68.60
2022-10-18T19:21:56.836Z,68.70
2022-10-18T19:24:25.458Z,68.90
2022-10-18T19:26:55.066Z,69.50
2022-10-18T19:29:24.840Z,69.50
2022-10-18T19:31:53.673Z,70.20
2022-10-18T19:34:21.472Z,69.70
2022-10-18T19:36:49.482Z,69.90
2022-10-18T19:39:34.106Z,70.40
2022-10-18T19:42:03.447Z,70.50
2022-10-18T19:44:32.481Z,70.40
2022-10-18T19:46:59.475Z,70.40
2022-10-18T19:49:28.559Z,70.20
2022-10-18T19:51:56.601Z,70.30
2022-10-18T19:54:23.626Z,70.30
2022-10-18T19:56:50.439Z,70.40
2022-10-18T19:59:17.993Z,70.50
2022-10-18T20:01:45.542Z,70.50
2022-10-18T20:04:13.377Z,71.00
2022-10-18T20:06:40.665Z,71.10
2022-10-18T20:09:10.415Z,71.10
2022-10-18T20:11:37.998Z,71.30
2022-10-18T20:14:09.629Z,71.90
2022-10-18T20:16:36.608Z,72.10
2022-10-18T20:19:07.174Z,72.80
2022-10-18T20:21:35.776Z,72.90
2022-10-18T20:24:04.852Z,73.40
2022-10-18T20:26:32.027Z,74.30
2022-10-18T20:28:59.944Z,74.90
2022-10-18T20:31:32.145Z,76.10
2022-10-18T20:34:01.430Z,76.90
2022-10-18T20:36:30.340Z,77.80
2022-10-18T20:38:57.516Z,78.90
2022-10-18T20:41:32.651Z,79.80
2022-10-18T20:44:05.216Z,80.40
2022-10-18T20:46:35.776Z,80.80
2022-10-18T20:49:04.186Z,80.60
2022-10-18T20:51:33.785Z,80.30
2022-10-18T20:54:02.305Z,80.20
2022-10-18T20:56:31.592Z,80.20
2022-10-18T20:58:58.686Z,80.20
2022-10-18T21:01:30.937Z,79.80
2022-10-18T21:04:00.478Z,80.00
2022-10-18T21:06:41.905Z,79.80
2022-10-18T21:09:12.418Z,79.60
2022-10-18T21:11:41.509Z,79.40
2022-10-18T21:14:13.067Z,79.30
2022-10-18T21:16:40.270Z,79.50
2022-10-18T21:19:11.180Z,79.40
2022-10-18T21:21:38.177Z,79.60
2022-10-18T21:24:07.706Z,79.30
2022-10-18T21:26:35.858Z,79.50
2022-10-18T21:29:03.433Z,79.60
2022-10-18T21:31:35.209Z,79.70
2022-10-18T21:34:12.914Z,79.50
2022-10-18T21:36:40.619Z,79.20
2022-10-18T21:39:10.653Z,79.20
2022-10-18T21:41:38.182Z,79.10
2022-10-18T21:44:08.357Z,79.10
2022-10-18T21:46:39.220Z,79.30
2022-10-18T21:49:06.919Z,79.70
2022-10-18T21:51:33.652Z,79.60
2022-10-18T21:54:00.404Z,81.00
2022-10-18T21:56:30.012Z,81.20
2022-10-18T21:58:57.558Z,82.30
2022-10-18T22:01:27.679Z,82.70
2022-10-18T22:03:55.930Z,83.30
2022-10-18T22:06:23.637Z,83.40
2022-10-18T22:08:53.160Z,83.20
2022-10-18T22:11:24.171Z,83.10
2022-10-18T22:13:52.541Z,83.00
2022-10-18T22:16:19.613Z,83.00
2022-10-18T22:18:47.649Z,83.40
2022-10-18T22:21:16.078Z,83.30
2022-10-18T22:23:47.913Z,83.20
2022-10-18T22:26:18.055Z,83.20
2022-10-18T22:28:47.558Z,83.70
2022-10-18T22:31:20.387Z,86.20
2022-10-18T22:33:47.757Z,86.10
2022-10-18T22:36:14.517Z,87.20
2022-10-18T22:38:41.427Z,88.00
2022-10-18T22:41:10.432Z,88.10
2022-10-18T22:43:37.384Z,88.50
2022-10-18T22:46:06.885Z,89.20
2022-10-18T22:48:34.281Z,88.80
2022-10-18T22:51:01.801Z,88.50
2022-10-18T22:53:28.891Z,87.90
2022-10-18T22:55:55.978Z,87.80
2022-10-18T22:58:23.096Z,88.30
2022-10-18T23:00:49.931Z,89.70
2022-10-18T23:03:18.661Z,90.00
2022-10-18T23:05:46.817Z,90.50
2022-10-18T23:08:14.618Z,90.40
2022-10-18T23:10:42.568Z,90.50
2022-10-18T23:13:10.802Z,90.30
2022-10-18T23:15:40.529Z,90.80
2022-10-18T23:18:07.273Z,90.70
2022-10-18T23:20:33.955Z,90.60
2022-10-18T23:23:00.786Z,90.30
2022-10-18T23:25:28.441Z,90.10
2022-10-18T23:27:56.466Z,90.10
2022-10-18T23:30:23.217Z,89.70
2022-10-18T23:32:50.024Z,90.20
2022-10-18T23:35:16.795Z,90.00
2022-10-18T23:37:43.548Z,89.90
2022-10-18T23:40:10.667Z,89.20
2022-10-18T23:42:37.435Z,89.70
2022-10-18T23:45:04.654Z,90.10
2022-10-18T23:47:31.549Z,90.00
2022-10-18T23:49:58.930Z,90.00
2022-10-18T23:52:25.673Z,90.10
2022-10-18T23:54:52.367Z,90.10
2022-10-18T23:57:19.096Z,90.10
2022-10-18T23:59:45.797Z,90.10
